Kezdőlap
METAR-TAF:

METAR-TAF

Repülőterek :

Saint-Pierre, Réunion

földrajzi szélesség: 21-20S, földrajzi hosszúság: 055-29E, magasság: 52 m

Jelenlegi meteorológiai megfigyelések

A jelentés 38 perccel ezelõtt készült, 11:00 UTC
Délkeleti szél 18 kt
Hőmérséklet 25°C
Páratartalom 65%
Légköri nyomás 1021 hPa
Látótávolság 10 km, vagy több
felhőtlen 1500 m magasságban, és nincs gomolyfelhõ

METAR: FMEP 201100Z AUTO 13018KT CAVOK 25/18 Q1021 NOSIG

Idő: 15:38 (11:38 UTC)

Előrejelzés

A jelentés 3 órával és 38 perccel ezelõtt készült, 08:00 UTC
Az előrejelzés 20-én 09 óra UTC és 20-én 18 óra UTC között érvényes
Kelet-délkeleti szél 20 kt
Látótávolság 10 km, vagy több
felhőtlen 1500 m magasságban, és nincs gomolyfelhõ

TAF: FMEP 200800Z 2009/2018 12020KT CAVOK

Meteorológiai megfigyelések és előrejelzések több, mint 4000 repülőtéren (METAR és TAF jelentéseket).

A térképen piros és sárga pontok jelzik az elérhető meteorológiai állomásokat.

Mozgassa az egeret a pont fölött, hogy megjelenjen az állomás neve.

Azután kattintson az időjárási megfigyelések és előrejelzések megtekintéséhez.

A térkép megváltoztatása: kattintson a fekete keresztel jelölt zöld gombra ráközelítéshez, a vonallal jelölt zöld gombra távolításhoz, vagy a zöld nyilakra a szomszédos térképek eléréséhez.


METAR-TAF: